sensor_id;sensor_type;location;lat;lon;timestamp;pressure;altitude;pressure_sealevel;temperature;humidity
48527;BME280;34317;51.660;5.824;2023-09-19T00:01:36;100690.97;;;19.28;55.46
48527;BME280;34317;51.660;5.824;2023-09-19T00:04:03;100698.31;;;19.25;55.42
48527;BME280;34317;51.660;5.824;2023-09-19T00:06:30;100704.66;;;19.24;55.45
48527;BME280;34317;51.660;5.824;2023-09-19T00:08:58;100699.41;;;19.23;55.62
48527;BME280;34317;51.660;5.824;2023-09-19T00:11:29;100711.84;;;19.24;55.55
48527;BME280;34317;51.660;5.824;2023-09-19T00:13:56;100713.69;;;19.23;55.49
48527;BME280;34317;51.660;5.824;2023-09-19T00:16:25;100709.28;;;19.22;55.37
48527;BME280;34317;51.660;5.824;2023-09-19T00:18:54;100711.00;;;19.23;55.34
48527;BME280;34317;51.660;5.824;2023-09-19T00:21:21;100712.09;;;19.21;55.30
48527;BME280;34317;51.660;5.824;2023-09-19T00:23:49;100716.63;;;19.20;55.28
48527;BME280;34317;51.660;5.824;2023-09-19T00:26:18;100716.88;;;19.17;55.42
48527;BME280;34317;51.660;5.824;2023-09-19T00:28:47;100716.31;;;19.14;55.36
48527;BME280;34317;51.660;5.824;2023-09-19T00:31:14;100714.72;;;19.11;55.32
48527;BME280;34317;51.660;5.824;2023-09-19T00:33:41;100718.38;;;19.10;55.40
48527;BME280;34317;51.660;5.824;2023-09-19T00:36:09;100717.66;;;19.08;55.32
48527;BME280;34317;51.660;5.824;2023-09-19T00:38:36;100721.56;;;19.04;55.31
48527;BME280;34317;51.660;5.824;2023-09-19T00:41:03;100721.84;;;19.01;55.45
48527;BME280;34317;51.660;5.824;2023-09-19T00:43:31;100724.03;;;18.96;55.36
48527;BME280;34317;51.660;5.824;2023-09-19T00:46:01;100727.69;;;18.95;55.39
48527;BME280;34317;51.660;5.824;2023-09-19T00:48:31;100728.91;;;18.91;55.33
48527;BME280;34317;51.660;5.824;2023-09-19T00:50:59;100731.72;;;18.89;55.43
48527;BME280;34317;51.660;5.824;2023-09-19T00:53:28;100730.16;;;18.86;55.52
48527;BME280;34317;51.660;5.824;2023-09-19T00:55:57;100737.47;;;18.84;55.46
48527;BME280;34317;51.660;5.824;2023-09-19T00:58:24;100743.09;;;18.81;55.49
48527;BME280;34317;51.660;5.824;2023-09-19T01:00:51;100741.41;;;18.80;55.41
48527;BME280;34317;51.660;5.824;2023-09-19T01:03:20;100748.69;;;18.78;55.46
48527;BME280;34317;51.660;5.824;2023-09-19T01:05:47;100738.19;;;18.75;55.49
48527;BME280;34317;51.660;5.824;2023-09-19T01:08:14;100755.41;;;18.73;55.59
48527;BME280;34317;51.660;5.824;2023-09-19T01:10:46;100750.16;;;18.71;55.50
48527;BME280;34317;51.660;5.824;2023-09-19T01:18:40;100759.69;;;18.64;55.55
48527;BME280;34317;51.660;5.824;2023-09-19T01:21:25;100757.97;;;18.63;55.56
48527;BME280;34317;51.660;5.824;2023-09-19T01:29:00;100767.97;;;18.61;55.57
48527;BME280;34317;51.660;5.824;2023-09-19T01:31:28;100764.31;;;18.62;55.63
48527;BME280;34317;51.660;5.824;2023-09-19T01:33:59;100770.63;;;18.61;55.61
48527;BME280;34317;51.660;5.824;2023-09-19T01:36:28;100777.00;;;18.60;55.55
48527;BME280;34317;51.660;5.824;2023-09-19T01:38:57;100784.19;;;18.59;55.54
48527;BME280;34317;51.660;5.824;2023-09-19T01:41:47;100781.53;;;18.59;55.69
48527;BME280;34317;51.660;5.824;2023-09-19T01:44:40;100786.00;;;18.59;55.65
48527;BME280;34317;51.660;5.824;2023-09-19T01:47:12;100783.47;;;18.57;55.51
48527;BME280;34317;51.660;5.824;2023-09-19T01:49:44;100780.91;;;18.56;55.67
48527;BME280;34317;51.660;5.824;2023-09-19T01:52:15;100788.22;;;18.54;55.52
48527;BME280;34317;51.660;5.824;2023-09-19T01:54:48;100788.47;;;18.51;55.58
48527;BME280;34317;51.660;5.824;2023-09-19T01:57:17;100786.72;;;18.49;55.41
48527;BME280;34317;51.660;5.824;2023-09-19T02:02:39;100785.28;;;18.45;55.52
48527;BME280;34317;51.660;5.824;2023-09-19T02:05:07;100790.91;;;18.42;55.67
48527;BME280;34317;51.660;5.824;2023-09-19T02:07:34;100795.53;;;18.40;55.60
48527;BME280;34317;51.660;5.824;2023-09-19T02:10:02;100778.69;;;18.38;55.60
48527;BME280;34317;51.660;5.824;2023-09-19T02:12:33;100790.41;;;18.37;55.58
48527;BME280;34317;51.660;5.824;2023-09-19T02:15:02;100794.19;;;18.35;55.59
48527;BME280;34317;51.660;5.824;2023-09-19T02:17:29;100793.31;;;18.34;55.62
48527;BME280;34317;51.660;5.824;2023-09-19T02:19:58;100789.06;;;18.32;55.44
48527;BME280;34317;51.660;5.824;2023-09-19T02:22:26;100798.94;;;18.31;55.65
48527;BME280;34317;51.660;5.824;2023-09-19T02:24:53;100800.00;;;18.28;55.61
48527;BME280;34317;51.660;5.824;2023-09-19T02:27:20;100792.09;;;18.27;55.44
48527;BME280;34317;51.660;5.824;2023-09-19T02:29:47;100794.03;;;18.25;55.43
48527;BME280;34317;51.660;5.824;2023-09-19T02:32:16;100803.81;;;18.26;55.45
48527;BME280;34317;51.660;5.824;2023-09-19T02:34:46;100806.72;;;18.23;55.52
48527;BME280;34317;51.660;5.824;2023-09-19T02:37:13;100808.66;;;18.21;55.35
48527;BME280;34317;51.660;5.824;2023-09-19T02:39:43;100803.41;;;18.19;55.57
48527;BME280;34317;51.660;5.824;2023-09-19T02:42:11;100817.91;;;18.17;55.43
48527;BME280;34317;51.660;5.824;2023-09-19T02:44:38;100814.50;;;18.15;55.52
48527;BME280;34317;51.660;5.824;2023-09-19T02:47:06;100813.66;;;18.14;55.44
48527;BME280;34317;51.660;5.824;2023-09-19T02:49:33;100814.72;;;18.12;55.55
48527;BME280;34317;51.660;5.824;2023-09-19T02:52:01;100811.31;;;18.09;55.28
48527;BME280;34317;51.660;5.824;2023-09-19T02:54:30;100807.91;;;18.07;55.53
48527;BME280;34317;51.660;5.824;2023-09-19T02:56:57;100810.69;;;18.06;55.52
48527;BME280;34317;51.660;5.824;2023-09-19T02:59:26;100811.78;;;18.03;55.40
48527;BME280;34317;51.660;5.824;2023-09-19T03:01:53;100817.38;;;18.00;55.41
48527;BME280;34317;51.660;5.824;2023-09-19T03:04:21;100819.31;;;17.98;55.39
48527;BME280;34317;51.660;5.824;2023-09-19T03:06:48;100817.88;;;17.94;55.59
48527;BME280;34317;51.660;5.824;2023-09-19T03:09:18;100823.44;;;17.91;55.29
48527;BME280;34317;51.660;5.824;2023-09-19T03:11:47;100821.75;;;17.90;55.56
48527;BME280;34317;51.660;5.824;2023-09-19T03:14:14;100825.38;;;17.89;55.42
48527;BME280;34317;51.660;5.824;2023-09-19T03:16:42;100825.66;;;17.86;55.48
48527;BME280;34317;51.660;5.824;2023-09-19T03:19:13;100825.84;;;17.83;55.39
48527;BME280;34317;51.660;5.824;2023-09-19T03:21:43;100827.78;;;17.81;55.41
48527;BME280;34317;51.660;5.824;2023-09-19T03:24:09;100820.69;;;17.80;55.38
48527;BME280;34317;51.660;5.824;2023-09-19T03:26:38;100824.34;;;17.79;55.56
48527;BME280;34317;51.660;5.824;2023-09-19T03:29:05;100814.59;;;17.78;55.45
48527;BME280;34317;51.660;5.824;2023-09-19T03:31:33;100824.59;;;17.76;55.51
48527;BME280;34317;51.660;5.824;2023-09-19T03:34:03;100821.16;;;17.74;55.34
48527;BME280;34317;51.660;5.824;2023-09-19T03:36:31;100823.09;;;17.71;55.52
48527;BME280;34317;51.660;5.824;2023-09-19T03:38:58;100828.47;;;17.71;55.50
48527;BME280;34317;51.660;5.824;2023-09-19T03:41:26;100814.34;;;17.69;55.35
48527;BME280;34317;51.660;5.824;2023-09-19T03:43:55;100817.97;;;17.68;55.45
48527;BME280;34317;51.660;5.824;2023-09-19T03:46:23;100816.28;;;17.67;55.43
48527;BME280;34317;51.660;5.824;2023-09-19T03:48:50;100812.88;;;17.65;55.36
48527;BME280;34317;51.660;5.824;2023-09-19T03:51:17;100821.00;;;17.64;55.46
48527;BME280;34317;51.660;5.824;2023-09-19T03:53:44;100817.50;;;17.63;55.36
48527;BME280;34317;51.660;5.824;2023-09-19T03:56:11;100804.09;;;17.63;55.16
48527;BME280;34317;51.660;5.824;2023-09-19T03:58:38;100809.44;;;17.63;55.36
48527;BME280;34317;51.660;5.824;2023-09-19T04:01:06;100813.94;;;17.63;55.32
48527;BME280;34317;51.660;5.824;2023-09-19T04:03:34;100806.03;;;17.61;55.35
48527;BME280;34317;51.660;5.824;2023-09-19T04:06:14;100813.09;;;17.62;55.33
48527;BME280;34317;51.660;5.824;2023-09-19T04:08:41;100818.44;;;17.62;55.48
48527;BME280;34317;51.660;5.824;2023-09-19T04:11:09;100813.09;;;17.62;55.29
48527;BME280;34317;51.660;5.824;2023-09-19T04:13:36;100813.09;;;17.62;55.50
48527;BME280;34317;51.660;5.824;2023-09-19T04:16:03;100812.13;;;17.63;55.32
48527;BME280;34317;51.660;5.824;2023-09-19T04:18:31;100813.94;;;17.63;55.43
48527;BME280;34317;51.660;5.824;2023-09-19T04:21:02;100811.41;;;17.61;55.37
48527;BME280;34317;51.660;5.824;2023-09-19T04:23:31;100822.09;;;17.61;55.15
48527;BME280;34317;51.660;5.824;2023-09-19T04:25:58;100828.41;;;17.60;55.39
48527;BME280;34317;51.660;5.824;2023-09-19T04:28:25;100829.38;;;17.59;55.27
48527;BME280;34317;51.660;5.824;2023-09-19T04:30:54;100831.31;;;17.57;55.27
48527;BME280;34317;51.660;5.824;2023-09-19T04:33:22;100835.81;;;17.57;55.18
48527;BME280;34317;51.660;5.824;2023-09-19T04:35:49;100849.31;;;17.55;55.25
48527;BME280;34317;51.660;5.824;2023-09-19T04:38:20;100851.25;;;17.53;55.34
48527;BME280;34317;51.660;5.824;2023-09-19T04:40:47;100854.94;;;17.52;55.17
48527;BME280;34317;51.660;5.824;2023-09-19T04:43:14;100864.91;;;17.50;55.32
48527;BME280;34317;51.660;5.824;2023-09-19T04:45:42;100862.22;;;17.50;55.33
48527;BME280;34317;51.660;5.824;2023-09-19T04:48:09;100878.28;;;17.50;55.25
48527;BME280;34317;51.660;5.824;2023-09-19T04:50:37;100884.59;;;17.49;55.24
48527;BME280;34317;51.660;5.824;2023-09-19T04:53:05;100881.91;;;17.49;55.37
48527;BME280;34317;51.660;5.824;2023-09-19T04:55:33;100883.66;;;17.50;55.46
48527;BME280;34317;51.660;5.824;2023-09-19T04:58:00;100879.97;;;17.51;55.28
48527;BME280;34317;51.660;5.824;2023-09-19T05:00:27;100882.66;;;17.51;55.30
48527;BME280;34317;51.660;5.824;2023-09-19T05:02:57;100882.66;;;17.51;55.36
48527;BME280;34317;51.660;5.824;2023-09-19T05:05:25;100885.34;;;17.51;55.38
48527;BME280;34317;51.660;5.824;2023-09-19T05:07:53;100887.06;;;17.52;55.37
48527;BME280;34317;51.660;5.824;2023-09-19T05:10:21;100886.81;;;17.55;55.38
48527;BME280;34317;51.660;5.824;2023-09-19T05:12:48;100883.19;;;17.56;55.31
48527;BME280;34317;51.660;5.824;2023-09-19T05:15:18;100885.75;;;17.58;55.47
48527;BME280;34317;51.660;5.824;2023-09-19T05:17:49;100890.97;;;17.59;55.47
48527;BME280;34317;51.660;5.824;2023-09-19T05:20:24;100893.66;;;17.59;55.47
48527;BME280;34317;51.660;5.824;2023-09-19T05:23:00;100893.66;;;17.59;55.38
48527;BME280;34317;51.660;5.824;2023-09-19T05:25:31;100899.00;;;17.59;55.64
48527;BME280;34317;51.660;5.824;2023-09-19T05:27:59;100893.66;;;17.59;55.37
48527;BME280;34317;51.660;5.824;2023-09-19T05:30:27;100909.50;;;17.62;55.43
48527;BME280;34317;51.660;5.824;2023-09-19T05:32:54;100895.16;;;17.63;55.56
48527;BME280;34317;51.660;5.824;2023-09-19T05:35:22;100892.34;;;17.65;55.53
48527;BME280;34317;51.660;5.824;2023-09-19T05:37:52;100901.16;;;17.67;55.41
48527;BME280;34317;51.660;5.824;2023-09-19T05:40:20;100896.63;;;17.67;55.42
48527;BME280;34317;51.660;5.824;2023-09-19T05:42:47;100892.97;;;17.68;55.36
48527;BME280;34317;51.660;5.824;2023-09-19T05:45:14;100894.69;;;17.69;55.49
48527;BME280;34317;51.660;5.824;2023-09-19T05:47:45;100889.34;;;17.69;55.49
48527;BME280;34317;51.660;5.824;2023-09-19T05:50:13;100889.34;;;17.69;55.53
48527;BME280;34317;51.660;5.824;2023-09-19T05:52:41;100900.78;;;17.71;55.40
48527;BME280;34317;51.660;5.824;2023-09-19T05:55:09;100897.28;;;17.71;55.24
48527;BME280;34317;51.660;5.824;2023-09-19T05:57:37;100889.13;;;17.73;55.49
48527;BME280;34317;51.660;5.824;2023-09-19T06:00:09;100887.19;;;17.75;55.60
48527;BME280;34317;51.660;5.824;2023-09-19T06:02:37;100888.88;;;17.76;55.51
48527;BME280;34317;51.660;5.824;2023-09-19T06:05:05;100894.00;;;17.79;55.63
48527;BME280;34317;51.660;5.824;2023-09-19T06:07:41;100894.00;;;17.79;55.50
48527;BME280;34317;51.660;5.824;2023-09-19T06:10:09;100898.28;;;17.81;55.44
48527;BME280;34317;51.660;5.824;2023-09-19T06:12:39;100907.94;;;17.84;55.56
48527;BME280;34317;51.660;5.824;2023-09-19T06:15:09;100897.00;;;17.87;55.58
48527;BME280;34317;51.660;5.824;2023-09-19T06:17:39;100902.13;;;17.90;55.68
48527;BME280;34317;51.660;5.824;2023-09-19T06:20:06;100901.03;;;17.93;55.71
48527;BME280;34317;51.660;5.824;2023-09-19T06:22:41;100897.16;;;17.97;55.57
48527;BME280;34317;51.660;5.824;2023-09-19T06:25:09;100897.78;;;18.00;55.48
48527;BME280;34317;51.660;5.824;2023-09-19T06:27:38;100900.34;;;18.02;55.62
48527;BME280;34317;51.660;5.824;2023-09-19T06:30:09;100905.50;;;18.05;55.58
48527;BME280;34317;51.660;5.824;2023-09-19T06:32:38;100906.13;;;18.08;55.57
48527;BME280;34317;51.660;5.824;2023-09-19T06:35:05;100911.22;;;18.12;55.53
48527;BME280;34317;51.660;5.824;2023-09-19T06:37:35;100908.44;;;18.13;55.52
48527;BME280;34317;51.660;5.824;2023-09-19T06:40:08;100919.78;;;18.17;55.57
48527;BME280;34317;51.660;5.824;2023-09-19T06:42:45;100916.16;;;18.18;55.56
48527;BME280;34317;51.660;5.824;2023-09-19T06:45:13;100919.56;;;18.20;55.58
48527;BME280;34317;51.660;5.824;2023-09-19T06:47:45;100929.19;;;18.22;55.54
48527;BME280;34317;51.660;5.824;2023-09-19T06:50:13;100928.81;;;18.27;55.58
48527;BME280;34317;51.660;5.824;2023-09-19T06:52:41;100941.06;;;18.31;55.60
48527;BME280;34317;51.660;5.824;2023-09-19T06:55:08;100931.06;;;18.33;55.50
48527;BME280;34317;51.660;5.824;2023-09-19T06:57:40;100930.81;;;18.36;55.49
48527;BME280;34317;51.660;5.824;2023-09-19T07:00:11;100930.56;;;18.39;55.34
48527;BME280;34317;51.660;5.824;2023-09-19T07:03:04;100935.72;;;18.42;55.43
48527;BME280;34317;51.660;5.824;2023-09-19T07:05:35;100923.88;;;18.45;55.46
48527;BME280;34317;51.660;5.824;2023-09-19T07:08:07;100929.03;;;18.48;55.55
48527;BME280;34317;51.660;5.824;2023-09-19T07:10:34;100922.56;;;18.51;55.58
48527;BME280;34317;51.660;5.824;2023-09-19T07:15:29;100922.09;;;18.57;55.38
48527;BME280;34317;51.660;5.824;2023-09-19T07:17:57;100934.28;;;18.61;55.48
48527;BME280;34317;51.660;5.824;2023-09-19T07:20:24;100932.34;;;18.63;55.53
48527;BME280;34317;51.660;5.824;2023-09-19T07:22:58;100932.09;;;18.66;55.55
48527;BME280;34317;51.660;5.824;2023-09-19T07:25:28;100941.63;;;18.70;55.55
48527;BME280;34317;51.660;5.824;2023-09-19T07:27:56;100942.13;;;18.75;55.62
48527;BME280;34317;51.660;5.824;2023-09-19T07:30:26;100936.53;;;18.78;55.42
48527;BME280;34317;51.660;5.824;2023-09-19T07:32:54;100938.00;;;18.82;55.39
48527;BME280;34317;51.660;5.824;2023-09-19T07:35:21;100941.44;;;18.84;55.56
48527;BME280;34317;51.660;5.824;2023-09-19T07:37:51;100946.56;;;18.88;55.36
48527;BME280;34317;51.660;5.824;2023-09-19T07:40:23;100930.22;;;18.91;55.46
48527;BME280;34317;51.660;5.824;2023-09-19T07:42:54;100938.88;;;18.94;55.46
48527;BME280;34317;51.660;5.824;2023-09-19T07:45:21;100937.53;;;19.00;55.49
48527;BME280;34317;51.660;5.824;2023-09-19T07:47:49;100936.31;;;19.04;55.46
48527;BME280;34317;51.660;5.824;2023-09-19T07:50:27;100932.44;;;19.08;55.61
48527;BME280;34317;51.660;5.824;2023-09-19T07:52:55;100955.09;;;19.15;55.68
48527;BME280;34317;51.660;5.824;2023-09-19T07:55:23;100941.22;;;19.21;55.61
48527;BME280;34317;51.660;5.824;2023-09-19T07:57:52;100931.53;;;19.30;55.62
48527;BME280;34317;51.660;5.824;2023-09-19T08:00:19;100936.19;;;19.39;55.65
48527;BME280;34317;51.660;5.824;2023-09-19T08:02:47;100942.75;;;19.47;55.61
48527;BME280;34317;51.660;5.824;2023-09-19T08:05:24;100945.78;;;19.53;55.55
48527;BME280;34317;51.660;5.824;2023-09-19T08:07:52;100946.88;;;19.62;55.66
48527;BME280;34317;51.660;5.824;2023-09-19T08:10:20;100957.72;;;19.72;55.65
48527;BME280;34317;51.660;5.824;2023-09-19T08:12:48;100947.09;;;19.81;55.76
48527;BME280;34317;51.660;5.824;2023-09-19T08:15:16;100939.00;;;19.93;55.80
48527;BME280;34317;51.660;5.824;2023-09-19T08:17:44;100948.88;;;20.03;55.46
48527;BME280;34317;51.660;5.824;2023-09-19T08:20:11;100954.47;;;20.12;55.45
48527;BME280;34317;51.660;5.824;2023-09-19T08:22:52;100946.88;;;20.17;55.53
48527;BME280;34317;51.660;5.824;2023-09-19T08:25:21;100951.00;;;20.21;55.32
48527;BME280;34317;51.660;5.824;2023-09-19T08:27:49;100948.06;;;20.24;55.23
48527;BME280;34317;51.660;5.824;2023-09-19T08:30:18;100954.88;;;20.28;55.45
48527;BME280;34317;51.660;5.824;2023-09-19T08:32:47;100962.31;;;20.36;55.31
48527;BME280;34317;51.660;5.824;2023-09-19T08:35:14;100953.84;;;20.40;55.32
48527;BME280;34317;51.660;5.824;2023-09-19T08:37:42;100955.31;;;20.45;55.31
48527;BME280;34317;51.660;5.824;2023-09-19T08:40:09;100948.53;;;20.50;55.19
48527;BME280;34317;51.660;5.824;2023-09-19T08:42:58;100943.75;;;20.54;55.29
48527;BME280;34317;51.660;5.824;2023-09-19T08:45:24;100953.75;;;20.63;55.31
48527;BME280;34317;51.660;5.824;2023-09-19T08:48:08;100956.63;;;20.71;55.29
48527;BME280;34317;51.660;5.824;2023-09-19T08:50:41;100959.53;;;20.79;55.30
48527;BME280;34317;51.660;5.824;2023-09-19T08:53:11;100954.47;;;20.86;55.26
48527;BME280;34317;51.660;5.824;2023-09-19T08:55:41;100961.88;;;20.94;55.14
48527;BME280;34317;51.660;5.824;2023-09-19T08:58:10;100967.72;;;20.99;55.12
48527;BME280;34317;51.660;5.824;2023-09-19T09:00:37;100961.06;;;21.03;55.01
48527;BME280;34317;51.660;5.824;2023-09-19T09:03:09;100959.94;;;21.06;55.00
48527;BME280;34317;51.660;5.824;2023-09-19T09:05:39;100958.53;;;21.11;55.08
48527;BME280;34317;51.660;5.824;2023-09-19T09:08:09;100966.38;;;21.14;54.87
48527;BME280;34317;51.660;5.824;2023-09-19T09:11:02;100953.34;;;21.19;54.96
48527;BME280;34317;51.660;5.824;2023-09-19T09:13:29;100946.44;;;21.27;55.06
48527;BME280;34317;51.660;5.824;2023-09-19T09:15:57;100947.56;;;21.34;55.16
48527;BME280;34317;51.660;5.824;2023-09-19T09:18:26;100948.16;;;21.37;54.94
48527;BME280;34317;51.660;5.824;2023-09-19T09:20:53;100957.13;;;21.38;54.77
48527;BME280;34317;51.660;5.824;2023-09-19T09:23:19;100957.84;;;21.40;54.84
48527;BME280;34317;51.660;5.824;2023-09-19T09:25:51;100947.63;;;21.44;54.75
48527;BME280;34317;51.660;5.824;2023-09-19T09:28:23;100951.78;;;21.48;54.85
48527;BME280;34317;51.660;5.824;2023-09-19T09:30:51;100960.44;;;21.51;54.76
48527;BME280;34317;51.660;5.824;2023-09-19T09:33:18;100943.72;;;21.57;54.80
48527;BME280;34317;51.660;5.824;2023-09-19T09:35:56;100954.22;;;21.61;54.67
48527;BME280;34317;51.660;5.824;2023-09-19T09:38:25;100948.53;;;21.64;54.66
48527;BME280;34317;51.660;5.824;2023-09-19T09:40:55;100944.31;;;21.71;54.76
48527;BME280;34317;51.660;5.824;2023-09-19T09:43:29;100930.97;;;21.79;54.71
48527;BME280;34317;51.660;5.824;2023-09-19T09:46:05;100913.25;;;21.86;54.71
48527;BME280;34317;51.660;5.824;2023-09-19T09:48:38;100921.63;;;21.93;54.84
48527;BME280;34317;51.660;5.824;2023-09-19T09:51:06;100921.34;;;21.96;54.52
48527;BME280;34317;51.660;5.824;2023-09-19T09:53:34;100919.22;;;22.00;54.52
48527;BME280;34317;51.660;5.824;2023-09-19T09:58:33;100931.28;;;22.15;54.53
48527;BME280;34317;51.660;5.824;2023-09-19T10:01:00;100923.34;;;22.23;54.54
48527;BME280;34317;51.660;5.824;2023-09-19T10:03:36;100927.22;;;22.30;54.41
48527;BME280;34317;51.660;5.824;2023-09-19T10:06:07;100933.88;;;22.36;54.47
48527;BME280;34317;51.660;5.824;2023-09-19T10:09:06;100930.47;;;22.44;54.56
48527;BME280;34317;51.660;5.824;2023-09-19T10:11:38;100928.88;;;22.51;54.22
48527;BME280;34317;51.660;5.824;2023-09-19T10:14:07;100930.16;;;22.57;54.39
48527;BME280;34317;51.660;5.824;2023-09-19T10:16:35;100927.00;;;22.61;54.43
48527;BME280;34317;51.660;5.824;2023-09-19T10:19:03;100929.81;;;22.69;54.38
48527;BME280;34317;51.660;5.824;2023-09-19T10:21:33;100929.53;;;22.72;54.18
48527;BME280;34317;51.660;5.824;2023-09-19T10:24:03;100932.09;;;22.74;53.79
48527;BME280;34317;51.660;5.824;2023-09-19T10:26:34;100936.34;;;22.77;53.97
48527;BME280;34317;51.660;5.824;2023-09-19T10:29:02;100934.91;;;22.82;54.15
48527;BME280;34317;51.660;5.824;2023-09-19T10:31:34;100924.06;;;22.92;54.04
48527;BME280;34317;51.660;5.824;2023-09-19T10:34:03;100920.47;;;23.01;54.03
48527;BME280;34317;51.660;5.824;2023-09-19T10:36:32;100920.31;;;23.12;54.15
48527;BME280;34317;51.660;5.824;2023-09-19T10:39:00;100915.41;;;23.26;54.13
48527;BME280;34317;51.660;5.824;2023-09-19T10:41:31;100950.34;;;23.37;53.83
48527;BME280;34317;51.660;5.824;2023-09-19T10:44:02;100921.03;;;23.42;53.67
48527;BME280;34317;51.660;5.824;2023-09-19T10:46:31;100919.03;;;23.44;53.56
48527;BME280;34317;51.660;5.824;2023-09-19T10:49:02;100931.56;;;23.45;53.40
48527;BME280;34317;51.660;5.824;2023-09-19T10:51:30;100924.13;;;23.47;53.47
48527;BME280;34317;51.660;5.824;2023-09-19T10:54:33;100911.31;;;23.49;53.28
48527;BME280;34317;51.660;5.824;2023-09-19T10:56:53;100914.16;;;23.48;53.31
48527;BME280;34317;51.660;5.824;2023-09-19T10:59:21;100925.53;;;23.51;53.57
48527;BME280;34317;51.660;5.824;2023-09-19T11:01:49;100918.81;;;23.56;53.49
48527;BME280;34317;51.660;5.824;2023-09-19T11:04:27;100927.00;;;23.64;53.57
48527;BME280;34317;51.660;5.824;2023-09-19T11:07:09;100925.41;;;23.71;53.30
48527;BME280;34317;51.660;5.824;2023-09-19T11:09:52;100919.41;;;23.77;53.09
48527;BME280;34317;51.660;5.824;2023-09-19T11:14:58;100890.63;;;23.76;53.05
48527;BME280;34317;51.660;5.824;2023-09-19T11:17:32;100900.47;;;23.77;53.24
48527;BME280;34317;51.660;5.824;2023-09-19T11:30:40;100877.22;;;23.84;53.04
48527;BME280;34317;51.660;5.824;2023-09-19T11:33:16;100866.09;;;23.87;53.10
48527;BME280;34317;51.660;5.824;2023-09-19T11:43:50;100859.06;;;23.95;52.92
48527;BME280;34317;51.660;5.824;2023-09-19T11:46:21;100856.34;;;23.95;52.83
48527;BME280;34317;51.660;5.824;2023-09-19T11:48:48;100855.19;;;23.97;52.99
48527;BME280;34317;51.660;5.824;2023-09-19T11:51:20;100848.28;;;24.03;53.01
48527;BME280;34317;51.660;5.824;2023-09-19T11:53:54;100849.38;;;24.10;52.92
48527;BME280;34317;51.660;5.824;2023-09-19T11:56:22;100837.59;;;24.19;52.69
48527;BME280;34317;51.660;5.824;2023-09-19T11:58:52;100852.56;;;24.32;52.77
48527;BME280;34317;51.660;5.824;2023-09-19T12:01:32;100840.47;;;24.44;52.91
48527;BME280;34317;51.660;5.824;2023-09-19T12:04:01;100842.25;;;24.53;52.98
48527;BME280;34317;51.660;5.824;2023-09-19T12:06:29;100838.91;;;24.59;52.77
48527;BME280;34317;51.660;5.824;2023-09-19T12:08:56;100839.94;;;24.66;52.58
48527;BME280;34317;51.660;5.824;2023-09-19T12:11:30;100828.47;;;24.73;52.35
48527;BME280;34317;51.660;5.824;2023-09-19T12:14:01;100849.47;;;24.79;52.45
48527;BME280;34317;51.660;5.824;2023-09-19T12:16:29;100830.22;;;24.82;52.09
48527;BME280;34317;51.660;5.824;2023-09-19T12:19:17;100834.63;;;24.83;52.25
48527;BME280;34317;51.660;5.824;2023-09-19T12:21:45;100830.88;;;24.84;52.35
48527;BME280;34317;51.660;5.824;2023-09-19T12:24:20;100832.59;;;24.85;51.87
48527;BME280;34317;51.660;5.824;2023-09-19T12:26:47;100838.03;;;24.85;51.90
48527;BME280;34317;51.660;5.824;2023-09-19T12:29:15;100825.47;;;24.84;51.84
48527;BME280;34317;51.660;5.824;2023-09-19T12:31:48;100826.66;;;24.81;51.78
48527;BME280;34317;51.660;5.824;2023-09-19T12:34:27;100829.53;;;24.80;51.78
48527;BME280;34317;51.660;5.824;2023-09-19T12:37:13;100832.91;;;24.82;51.90
48527;BME280;34317;51.660;5.824;2023-09-19T12:39:49;100822.38;;;24.79;51.70
48527;BME280;34317;51.660;5.824;2023-09-19T12:42:19;100843.75;;;24.82;52.03
48527;BME280;34317;51.660;5.824;2023-09-19T12:44:46;100827.88;;;24.87;51.74
48527;BME280;34317;51.660;5.824;2023-09-19T12:47:15;100837.66;;;24.88;51.67
48527;BME280;34317;51.660;5.824;2023-09-19T12:52:36;100832.72;;;24.75;51.31
48527;BME280;34317;51.660;5.824;2023-09-19T12:55:04;100835.53;;;24.65;51.09
48527;BME280;34317;51.660;5.824;2023-09-19T12:57:34;100844.63;;;24.56;51.09
48527;BME280;34317;51.660;5.824;2023-09-19T13:00:02;100838.44;;;24.46;51.11
48527;BME280;34317;51.660;5.824;2023-09-19T13:02:29;100842.81;;;24.39;51.48
48527;BME280;34317;51.660;5.824;2023-09-19T13:04:57;100847.16;;;24.32;51.38
48527;BME280;34317;51.660;5.824;2023-09-19T13:07:39;100847.78;;;24.25;51.51
48527;BME280;34317;51.660;5.824;2023-09-19T13:10:09;100845.03;;;24.17;51.44
48527;BME280;34317;51.660;5.824;2023-09-19T13:12:38;100841.63;;;24.15;51.38
48527;BME280;34317;51.660;5.824;2023-09-19T13:15:11;100837.91;;;24.16;51.68
48527;BME280;34317;51.660;5.824;2023-09-19T13:17:44;100836.22;;;24.15;51.52
48527;BME280;34317;51.660;5.824;2023-09-19T13:20:22;100846.41;;;24.21;51.75
48527;BME280;34317;51.660;5.824;2023-09-19T13:22:54;100841.53;;;24.25;51.59
48527;BME280;34317;51.660;5.824;2023-09-19T13:25:25;100851.19;;;24.27;51.78
48527;BME280;34317;51.660;5.824;2023-09-19T13:27:55;100833.25;;;24.26;51.58
48527;BME280;34317;51.660;5.824;2023-09-19T13:30:23;100851.53;;;24.24;51.45
48527;BME280;34317;51.660;5.824;2023-09-19T13:33:04;100837.59;;;24.19;51.42
48527;BME280;34317;51.660;5.824;2023-09-19T13:35:33;100851.59;;;24.15;51.43
48527;BME280;34317;51.660;5.824;2023-09-19T13:38:00;100845.69;;;24.11;51.42
48527;BME280;34317;51.660;5.824;2023-09-19T13:40:28;100843.41;;;24.06;51.12
48527;BME280;34317;51.660;5.824;2023-09-19T13:42:59;100852.56;;;24.05;51.19
48527;BME280;34317;51.660;5.824;2023-09-19T13:45:26;100841.91;;;24.04;51.36
48527;BME280;34317;51.660;5.824;2023-09-19T13:47:53;100848.28;;;24.03;51.27